Airfield :







YOU CAN JOIN US ON...

 
LOGIN :

Register | Disclaimer

   EN    FR    IT 

 









Legend :    VFR   Marginal VFR   IFR   Intensive IFR   Very Intensive IFR
Visi :
Ceiling :
>= 8 km
>= 3000ft
5 to 8 km
1000 to 3000 ft
1500m to 5 km
500 to 1000 ft
800 to 1500m
200 to 500 ft
< 800m
< 200 ft
Symbols :   Thunderstorms  Fog  Heavy snow  Heavy precipitations  Wind > 20 kt






- Airport Elevation : 108 ft
- IATA code : YAY


CYAY - St Anthony

CURRENT METAR :
  • 131735Z AUTO 02016KT 9SM -RA FEW029 OVC060 09/06 A2974 RMK SLP072

EXPIRED METARs :
  • 131700Z AUTO 03014G19KT 9SM OVC066 09/06 A2973 RMK LTNG DIST S SW SLP071
  • 131600Z AUTO 03012KT 9SM FEW011 BKN071 OVC110 11/07 A2973 RMK SLP069
  • 131531Z AUTO 04011KT 9SM FEW011 SCT023 BKN066 OVC110 11/08 A2972 RMK SLP068
  • 131523Z AUTO 03012KT 9SM BKN023 OVC066 11/08 A2972 RMK SLP068

TAF TAF CYAY
Valid from the 13 at 14:00 until the 14 at 02:00 UTC


131341Z 1314/1402 02007KT P6SM SCT004 BKN030
TEMPO 1314/1317 4SM -RA BR BKN004 OVC030
FM131700 04008KT P6SM FEW012 OVC030
TEMPO 1317/1322 5SM -SHRA BR OVC012
PROB30 1317/1322 2SM TSRA BR BKN007 OVC040CB
FM132200 02010KT P6SM FEW004 OVC030
TEMPO 1322/1402 2SM BR BKN004 OVC030
PROB30 1322/1402 1SM BR BKN003 RMK FCST BASED ON AUTO OBS. NXT FCST BY 132000Z
CZQX FIR / North America



MET'MAP, your aeronautical weather chart ! - Copyright ORBIFLY December 2007 - Disclaimer

ORBIFLY MET'MAP TEAM :

Programming & Development : Alexandra Zaïnal
Concept & original design : Baudouin d'Aumeries
Assistance for programming : Marc-Olivier Méhu
Technical & hardware support : Manuel Goepfert

Contact : metmap@orbifly.com




SOURCES & CREDITS :

   NOAA